Latest Weather Observations for Cape Wessel

IDD60801

Issued at 2:05 pm CST Wednesday 20 August 2014 (issued every 30 minutes, with the page automatically refreshed every 10 minutes)

About weather observations | Map of weather stations | Latest weather observations for NT | Other Formats
Station Details ID: 200786 Name: CAPE WESSEL Lat: -11.00 Lon: 136.76 Height: 18.0 m
Data from the previous 72 hours. | See also: Recent months for locations in Northern Territory
Date/Time
CST
Temp
°C
App
Temp
°C
Dew
Point
Rel
Hum
%
Delta-T
°C
Wind Press
QNH
hPa
Press
MSL
hPa
Rain
since 9 am
mm
Dir
 
Spd
km/h
Gust
km/h
Spd
kts
Gust
kts
20/02:00pm 28.5 27.0 17.7 52 6.8 SE 22 26 12 14 1013.7 - 0.0
20/01:30pm 28.6 27.3 18.1 53 6.7 SE 22 28 12 15 1014.2 - 0.0
20/01:00pm 28.7 27.3 17.9 52 6.9 SE 22 28 12 15 1014.7 - 0.0
20/12:30pm 28.5 27.3 18.3 54 6.5 SE 22 28 12 15 1015.1 - 0.0
20/12:00pm 28.5 27.3 18.3 54 6.5 SE 22 30 12 16 1015.5 1015.4 0.0
20/11:30am 28.2 26.8 18.0 54 6.5 SE 22 28 12 15 1015.8 - 0.0
20/11:00am 28.0 26.9 17.8 54 6.5 SE 20 26 11 14 1016.2 - 0.0
20/10:30am 27.4 26.2 17.6 55 6.2 SSE 20 26 11 14 1016.1 - 0.0
20/10:00am 27.6 27.1 18.6 58 5.8 SSE 19 22 10 12 1016.3 - 0.0
20/09:30am 26.8 26.6 18.6 60 5.2 SSE 17 20 9 11 1016.3 - 0.0
20/09:00am 26.0 25.9 18.7 64 4.7 SSE 17 20 9 11 1016.1 1016.0 0.0
20/08:30am 25.1 24.9 18.5 67 4.2 SSE 17 20 9 11 1016.2 - 0.0
20/08:00am 24.3 23.8 18.7 71 3.6 SSE 19 24 10 13 1016.1 - 0.0
20/07:30am 23.3 22.6 18.6 75 3.0 SSE 20 24 11 13 1015.9 - 0.0
20/07:00am 22.5 21.6 18.3 77 2.6 SE 20 24 11 13 1015.4 - 0.0
20/06:30am 22.1 21.1 17.9 77 2.6 SE 20 24 11 13 1015.3 - 0.0
20/06:00am 22.2 20.8 18.0 77 2.6 ESE 22 26 12 14 1015.1 1015.0 0.0
20/05:30am 22.2 20.8 18.0 77 2.6 ESE 22 26 12 14 1014.8 - 0.0
20/05:00am 22.2 21.1 17.8 76 2.7 SE 20 26 11 14 1014.7 - 0.0
20/04:30am 22.3 20.4 17.7 75 2.9 SE 24 28 13 15 1014.3 - 0.0
20/04:00am 22.4 20.1 17.5 74 3.0 SE 26 32 14 17 1014.3 - 0.0
20/03:30am 22.6 20.3 17.7 74 3.0 SSE 26 32 14 17 1014.4 - 0.0
20/03:00am 22.6 20.3 17.7 74 3.0 SSE 26 33 14 18 1014.5 1014.4 0.0
20/02:30am 22.6 19.9 17.5 73 3.2 SSE 28 33 15 18 1014.5 - 0.0
20/02:00am 22.7 20.4 17.6 73 3.2 SE 26 33 14 18 1014.4 - 0.0
20/01:30am 22.9 19.8 17.6 72 3.3 SSE 30 37 16 20 1014.5 - 0.0
20/01:00am 23.0 19.6 17.7 72 3.3 SSE 32 39 17 21 1014.8 - 0.0
20/12:30am 23.0 20.0 17.7 72 3.3 SSE 30 39 16 21 1015.1 - 0.0
20/12:00am 23.1 20.1 17.8 72 3.3 SSE 30 37 16 20 1015.4 1015.3 0.0
 
Date/Time
CST
Temp
°C
App
Temp
°C
Dew
Point
Rel
Hum
%
Delta-T
°C
Wind Press
QNH
hPa
Press
MSL
hPa
Rain
since 9 am
mm
Dir
 
Spd
km/h
Gust
km/h
Spd
kts
Gust
kts
19/11:30pm 23.1 19.7 17.6 71 3.4 SE 32 41 17 22 1015.4 - 0.0
19/11:00pm 23.1 19.7 17.6 71 3.4 SE 32 39 17 21 1015.5 - 0.0
19/10:30pm 23.0 19.5 17.5 71 3.4 SE 32 39 17 21 1015.4 - 0.0
19/10:00pm 22.8 19.6 17.3 71 3.4 SE 30 39 16 21 1015.1 - 0.0
19/09:30pm 22.9 19.3 17.1 70 3.6 SE 32 39 17 21 1015.0 - 0.0
19/09:00pm 22.7 18.9 16.7 69 3.7 SE 32 37 17 20 1014.8 1014.7 0.0
19/08:30pm 23.0 19.3 17.0 69 3.7 SE 32 39 17 21 1014.5 - 0.0
19/08:00pm 23.0 19.0 16.8 68 3.8 SSE 33 43 18 23 1014.2 - 0.0
19/07:30pm 23.1 19.3 16.6 67 4.0 SE 32 39 17 21 1014.1 - 0.0
19/07:00pm 23.1 19.1 16.2 65 4.2 SSE 32 39 17 21 1013.6 - 0.0
19/06:30pm 23.3 19.3 16.1 64 4.4 SE 32 41 17 22 1013.4 - 0.0
19/06:00pm 23.8 19.6 15.8 61 4.8 SSE 32 41 17 22 1013.3 1013.2 0.0
19/05:30pm 24.8 20.7 16.0 58 5.4 SE 32 41 17 22 1013.3 - 0.0
19/05:00pm 25.3 21.2 15.9 56 5.7 SE 32 41 17 22 1013.3 - 0.0
19/04:30pm 25.8 21.6 16.1 55 5.9 SE 33 41 18 22 1013.2 - 0.0
19/04:00pm 25.8 21.3 15.5 53 6.2 SE 33 41 18 22 1013.2 - 0.0
19/03:30pm 26.6 22.2 15.6 50 6.7 SE 33 41 18 22 1013.2 - 0.0
19/03:00pm 26.8 22.2 16.1 52 6.6 SE 35 43 19 23 1013.4 1013.3 0.0
19/02:30pm 26.8 22.3 15.5 50 6.9 SE 33 41 18 22 1013.8 - 0.0
19/02:00pm 27.1 23.0 16.4 52 6.6 SE 33 43 18 23 1014.2 - 0.0
19/01:30pm 26.5 22.2 15.5 50 6.7 SSE 32 41 17 22 1014.7 - 0.0
19/01:00pm 26.0 21.6 15.7 53 6.3 SE 33 41 18 22 1015.2 - 0.0
19/12:30pm 26.3 22.3 16.3 54 6.2 SE 32 41 17 22 1015.7 - 0.0
19/12:00pm 25.7 21.3 15.7 54 6.1 SE 33 43 18 23 1016.0 1015.9 0.0
19/11:30am 26.4 21.8 16.0 52 6.4 SE 35 43 19 23 1016.4 - 0.0
19/11:00am 26.4 22.1 15.8 52 6.5 SSE 33 43 18 23 1016.8 - 0.0
19/10:30am 26.4 22.1 16.0 52 6.4 SSE 33 43 18 23 1017.0 - 0.0
19/10:00am 26.8 22.5 17.0 55 6.1 SSE 35 43 19 23 1017.2 - 0.0
19/09:30am 26.5 22.8 17.0 56 5.9 SE 32 41 17 22 1017.4 - 0.0
19/09:00am 25.1 21.2 16.5 59 5.3 SE 32 41 17 22 1017.4 1017.3 0.0
19/08:30am 24.6 20.9 16.1 59 5.2 SE 30 39 16 21 1017.4 - 0.0
19/08:00am 23.9 20.1 15.7 60 5.0 SSE 30 37 16 20 1017.1 - 0.0
19/07:30am 22.8 18.9 15.4 63 4.4 SSE 30 39 16 21 1016.7 - 0.0
19/07:00am 22.5 18.3 15.6 65 4.1 SSE 32 37 17 20 1016.3 - 0.0
19/06:30am 22.1 18.2 15.5 66 3.9 SSE 30 39 16 21 1016.0 - 0.0
19/06:00am 22.0 18.3 15.1 65 4.1 SSE 28 35 15 19 1015.6 1015.5 0.0
19/05:30am 21.9 18.3 15.3 66 3.9 SSE 28 35 15 19 1015.5 - 0.0
19/05:00am 22.0 18.4 16.3 70 3.5 SSE 30 39 16 21 1015.3 - 0.0
19/04:30am 22.0 18.0 16.7 72 3.2 SSE 33 41 18 22 1015.1 - 0.0
19/04:00am 22.1 18.3 17.2 74 3.0 SSE 33 41 18 22 1015.0 - 0.0
19/03:30am 22.2 18.4 17.3 74 3.0 SSE 33 43 18 23 1015.2 - 0.0
19/03:00am 22.4 18.6 17.3 73 3.1 SSE 33 44 18 24 1015.3 1015.2 0.0
19/02:30am 22.4 18.4 17.5 74 3.0 SSE 35 43 19 23 1015.3 - 0.0
19/02:00am 22.4 18.3 17.3 73 3.1 SSE 35 43 19 23 1015.0 - 0.0
19/01:30am 22.4 18.9 17.5 74 3.0 SSE 32 44 17 24 1015.2 - 0.0
19/01:00am 22.4 18.6 17.3 73 3.1 SSE 33 41 18 22 1015.3 - 0.0
19/12:30am 22.5 18.4 17.4 73 3.1 SSE 35 43 19 23 1015.3 - 0.0
19/12:00am 22.8 19.3 17.5 72 3.3 SSE 32 41 17 22 1015.6 1015.5 0.0
 
Date/Time
CST
Temp
°C
App
Temp
°C
Dew
Point
Rel
Hum
%
Delta-T
°C
Wind Press
QNH
hPa
Press
MSL
hPa
Rain
since 9 am
mm
Dir
 
Spd
km/h
Gust
km/h
Spd
kts
Gust
kts
18/11:30pm 22.7 19.0 17.4 72 3.3 SSE 33 41 18 22 1015.6 - 0.0
18/11:00pm 22.6 18.8 17.3 72 3.3 SSE 33 44 18 24 1015.5 - 0.0
18/10:30pm 22.7 19.1 17.2 71 3.4 SSE 32 41 17 22 1015.4 - 0.0
18/10:00pm 22.7 18.8 16.9 70 3.6 SSE 33 39 18 21 1015.3 - 0.0
18/09:30pm 22.9 19.3 17.1 70 3.6 SSE 32 39 17 21 1015.2 - 0.0
18/09:00pm 22.8 19.1 17.0 70 3.6 SSE 32 39 17 21 1015.3 1015.2 0.0
18/08:30pm 23.0 19.4 17.2 70 3.6 SSE 32 39 17 21 1015.3 - 0.0
18/08:00pm 23.1 19.5 17.1 69 3.7 SE 32 41 17 22 1015.1 - 0.0
18/07:30pm 23.2 19.6 17.2 69 3.7 SSE 32 41 17 22 1014.8 - 0.0
18/07:00pm 23.3 19.5 17.1 68 3.8 SE 33 43 18 23 1014.6 - 0.0
18/06:30pm 23.4 19.7 16.9 67 4.0 SE 32 39 17 21 1014.4 - 0.0
18/06:00pm 23.8 20.4 16.8 65 4.3 SSE 30 39 16 21 1014.2 1014.1 0.0
18/05:30pm 24.5 20.7 16.7 61 4.8 SE 32 41 17 22 1014.1 - 0.0
18/05:00pm 25.2 21.3 16.9 60 5.1 SE 33 41 18 22 1013.9 - 0.0
18/04:30pm 25.8 21.9 16.9 58 5.5 SE 33 43 18 23 1013.9 - 0.0
18/04:00pm 26.6 22.4 17.1 56 5.9 SE 35 43 19 23 1013.9 - 0.0
18/03:30pm 27.2 23.5 17.4 55 6.2 SE 33 41 18 22 1013.9 - 0.0
18/03:00pm 27.6 24.0 17.7 54 6.3 SE 33 41 18 22 1014.0 1013.9 0.0
18/02:30pm 27.7 23.4 16.9 51 6.7 SE 35 44 19 24 1014.3 - 0.0
18/02:00pm 28.4 24.3 17.3 51 7.0 SE 35 44 19 24 1014.6 - 0.0
18/01:30pm 28.2 24.1 17.4 52 6.8 SE 35 44 19 24 1014.8 - 0.0
18/01:00pm 28.7 25.2 17.9 52 6.9 SE 33 46 18 25 1015.1 - 0.0
18/12:30pm 28.1 23.7 16.7 50 7.1 SE 35 44 19 24 1015.5 - 0.0
18/12:00pm 28.3 23.7 17.2 51 7.0 SE 37 46 20 25 1015.8 1015.7 0.0
18/11:30am 28.0 22.8 16.6 50 7.1 SE 39 46 21 25 1016.1 - 0.0
18/11:00am 27.6 22.6 16.2 49 7.0 SE 37 48 20 26 1016.5 - 0.0
18/10:30am 27.2 21.8 15.9 50 6.9 SE 39 46 21 25 1016.8 - 0.0
18/10:00am 27.0 21.7 16.3 52 6.6 SE 39 46 21 25 1016.8 - 0.0
18/09:30am 26.3 21.0 16.3 54 6.2 SE 39 50 21 27 1016.8 - 0.0
18/09:00am 25.9 20.7 16.5 56 5.8 SE 39 48 21 26 1016.8 1016.7 0.0
18/08:30am 25.2 19.6 16.6 59 5.3 SE 41 50 22 27 1016.5 - 0.0
18/08:00am 24.3 19.5 16.6 62 4.7 SE 37 48 20 26 1016.2 - 0.0
18/07:30am 23.6 17.8 15.9 62 4.7 SE 41 48 22 26 1015.9 - 0.0
18/07:00am 23.2 17.6 15.5 62 4.6 SE 39 46 21 25 1015.8 - 0.0
18/06:30am 22.9 18.0 15.2 62 4.6 SE 35 46 19 25 1015.5 - 0.0
18/06:00am 22.9 17.1 15.0 61 4.7 SE 39 46 21 25 1015.1 1015.0 0.0
18/05:30am 22.7 17.0 14.3 59 4.9 SE 37 46 20 25 1014.8 - 0.0
18/05:00am 22.8 17.2 14.4 59 4.9 SE 37 48 20 26 1014.7 - 0.0
18/04:30am 22.6 17.4 14.4 60 4.8 SSE 35 44 19 24 1014.5 - 0.0
18/04:00am 22.5 17.4 14.9 62 4.5 SSE 35 46 19 25 1014.3 - 0.0
18/03:30am 22.4 17.4 15.0 63 4.4 SSE 35 44 19 24 1014.1 - 0.0
18/03:00am 22.1 17.7 15.7 67 3.8 SSE 33 43 18 23 1014.1 1014.0 0.0
18/02:30am 22.0 17.0 16.1 69 3.6 SSE 37 46 20 25 1014.3 - 0.0
18/02:00am 22.1 17.2 16.4 70 3.5 SSE 37 44 20 24 1014.3 - 0.0
18/01:30am 22.3 17.8 16.3 69 3.6 SSE 35 43 19 23 1014.6 - 0.0
18/01:00am 22.3 17.2 15.9 67 3.9 SSE 37 48 20 26 1014.8 - 0.0
18/12:30am 22.4 17.4 16.0 67 3.9 SSE 37 44 20 24 1014.8 - 0.0
18/12:00am 22.5 17.9 16.1 67 3.9 SSE 35 46 19 25 1015.1 1015.0 0.0
 
Date/Time
CST
Temp
°C
App
Temp
°C
Dew
Point
Rel
Hum
%
Delta-T
°C
Wind Press
QNH
hPa
Press
MSL
hPa
Rain
since 9 am
mm
Dir
 
Spd
km/h
Gust
km/h
Spd
kts
Gust
kts
17/11:30pm 22.6 18.0 16.2 67 3.9 SSE 35 43 19 23 1015.5 - 0.0
17/11:00pm 22.6 17.9 15.9 66 4.0 SSE 35 44 19 24 1015.7 - 0.0
17/10:30pm 22.5 17.3 15.6 65 4.1 SSE 37 46 20 25 1015.8 - 0.0
17/10:00pm 22.4 17.6 15.5 65 4.1 SSE 35 44 19 24 1015.9 - 0.0
17/09:30pm 22.4 16.7 15.3 64 4.2 SSE 39 50 21 27 1015.5 - 0.0
17/09:00pm 22.5 17.2 15.4 64 4.2 SSE 37 46 20 25 1015.3 1015.2 0.0
17/08:30pm 22.5 16.8 15.1 63 4.4 SSE 39 50 21 27 1015.2 - 0.0
17/08:00pm 22.4 16.6 15.0 63 4.4 SSE 39 52 21 28 1015.0 - 0.0
17/07:30pm 22.6 16.3 14.7 61 4.7 SSE 41 52 22 28 1014.6 - 0.0
17/07:00pm 22.6 16.8 15.0 62 4.5 SSE 39 50 21 27 1014.3 - 0.0
17/06:30pm 22.8 17.0 14.9 61 4.7 SSE 39 50 21 27 1014.0 - 0.0
17/06:00pm 23.1 17.2 14.7 59 5.0 SSE 39 48 21 26 1013.7 1013.6 0.0
17/05:30pm 23.8 17.6 14.8 57 5.4 SSE 41 52 22 28 1013.5 - 0.0
17/05:00pm 24.4 18.4 14.5 54 5.9 SSE 39 50 21 27 1013.3 - 0.0
17/04:30pm 25.2 19.4 14.9 52 6.2 SSE 39 50 21 27 1013.2 - 0.0
17/04:00pm 25.9 21.0 15.3 52 6.4 SSE 35 44 19 24 1013.0 - 0.0
17/03:30pm 26.2 20.8 15.0 50 6.8 SE 37 46 20 25 1013.0 - 0.0
17/03:00pm 26.7 21.4 15.4 50 6.9 SSE 37 50 20 27 1012.9 1012.8 0.0
17/02:30pm 26.8 21.1 15.2 49 7.0 SSE 39 50 21 27 1012.8 - 0.0

Other Formats:

Comma delimited format used in spreadsheet applications
http://www.bom.gov.au/fwo/IDD60801/IDD60801.94147.axf

JavaScript Object Notation format (JSON) in row-major order
http://www.bom.gov.au/fwo/IDD60801/IDD60801.94147.json